Airfield :
LOGIN :

Register | Disclaimer

   EN    FR    IT 

 










Legend :    VFR   Marginal VFR   IFR   Intensive IFR   Very Intensive IFR
Visi :
Ceiling :
>= 8 km
>= 3000ft
5 to 8 km
1000 to 3000 ft
1500m to 5 km
500 to 1000 ft
800 to 1500m
200 to 500 ft
< 800m
< 200 ft
Symbols :   Thunderstorms  Fog  Heavy snow  Heavy precipitations  Wind > 20 kt
SIGMETs :     Misc.  Thunderstorms  Icing  Turbulence  Mountain Waves  Volcanic Ashes







- Airport Elevation : 74 ft
- IATA code : LRH
- Download approach charts


LFBH - La Rochelle Ile de Ré

CURRENT METAR :
  • 201900Z AUTO 31012KT CAVOK 21/17 Q1018 NOSIG

EXPIRED METARs :
  • 201830Z AUTO 30010KT 9999 FEW021 22/18 Q1018 NOSIG
  • 201800Z AUTO 29011KT 260V320 9999 BKN015 BKN024 BKN050 22/18 Q1018 NOSIG
  • 201730Z AUTO 25009KT 220V280 9999 BKN012 BKN022 OVC054 23/19 Q1018 BECMG NSC
  • 201700Z AUTO 25010KT 9999 BKN013 OVC048 23/19 Q1017 BECMG NSC
  • 201630Z AUTO 24011KT 9999 FEW015 SCT039 BKN045 23/18 Q1017 NOSIG

TAF TAF LFBH
Valid from the 20 at 18:00 until the 21 at 18:00 UTC


201700Z 2018/2118 27012KT 9999 SCT015
BECMG 2018/2020 CAVOK
BECMG 2100/2102 35005KT SCT012
PROB30 2104/2108 0600 BCFG BKN012
BECMG 2108/2110 SCT020
BECMG 2110/2112 29010KT
ATIS : +33 5 46 00 13 92
No reported NOTAMs for that airfield.



MET'MAP, your aeronautical weather chart ! - Copyright ORBIFLY December 2007 - Disclaimer

ORBIFLY MET'MAP TEAM :

Programming & Development : Alexandra Zaïnal
Concept & Development : Baudouin d'Aumeries
Co-Development & Prog : Marc-Olivier Méhu
Technical & hardware support : Manuel Goepfert

Contact : metmap@orbifly.com




SOURCES & CREDITS :

   NOAA